Time;durP1;ratioP1;P1;durP2;ratioP2;P2;SDS_P1;SDS_P2;PMS_P1;PMS_P2;Temp;Humidity;BMP_temperature;BMP_pressure;BME280_temperature;BME280_humidity;BME280_pressure;Samples;Min_cycle;Max_cycle;Signal;HPM_P1;HPM_P2
2021/07/16 00:01:17;;;;;;;;;;;;;;;16.89;100.00;100788.56;5071566;28;20015;-69
2021/07/16 00:03:44;;;;;;;;;;;;;;;16.84;100.00;100791.78;5071701;28;19924;-69
2021/07/16 00:06:10;;;;;;;;;;;;;;;16.88;100.00;100795.06;5071760;28;19931;-69
2021/07/16 00:08:36;;;;;;;;;;;;;;;16.86;100.00;100787.00;5071531;28;20023;-69
2021/07/16 00:11:04;;;;;;;;;;;;;;;16.87;100.00;100787.84;5071700;28;19924;-69
2021/07/16 00:13:30;;;;;;;;;;;;;;;16.84;100.00;100791.78;5071647;28;19963;-70
2021/07/16 00:15:57;;;;;;;;;;;;;;;16.87;100.00;100794.19;5071343;28;20424;-70
2021/07/16 00:18:23;;;;;;;;;;;;;;;16.87;100.00;100794.19;5071396;28;20104;-70
2021/07/16 00:20:49;;;;;;;;;;;;;;;16.85;100.00;100804.47;5071792;28;19951;-70
2021/07/16 00:23:16;;;;;;;;;;;;;;;16.82;100.00;100802.06;5070523;28;20342;-70
2021/07/16 00:25:42;;;;;;;;;;;;;;;16.83;100.00;100803.75;5071447;28;20396;-70
2021/07/16 00:28:10;;;;;;;;;;;;;;;16.82;100.00;100799.31;5071358;28;19979;-70
2021/07/16 00:30:36;;;;;;;;;;;;;;;16.82;100.00;100801.19;5071348;28;19970;-70
2021/07/16 00:33:03;;;;;;;;;;;;;;;16.82;100.00;100796.59;5071306;28;20466;-70
2021/07/16 00:35:30;;;;;;;;;;;;;;;16.85;100.00;100803.59;5071333;28;20386;-70
2021/07/16 00:37:56;;;;;;;;;;;;;;;16.81;100.00;100800.34;5071055;28;19924;-70
2021/07/16 00:40:22;;;;;;;;;;;;;;;16.79;100.00;100802.38;5071324;28;19963;-69
2021/07/16 00:42:49;;;;;;;;;;;;;;;16.79;100.00;100809.75;5071438;28;19978;-70
2021/07/16 00:45:17;;;;;;;;;;;;;;;16.76;100.00;100812.81;5071275;28;20021;-70
2021/07/16 00:47:44;;;;;;;;;;;;;;;16.74;100.00;100812.97;5071254;28;20450;-70
2021/07/16 00:50:11;;;;;;;;;;;;;;;16.75;100.00;100806.47;5071368;28;19968;-70
2021/07/16 00:52:38;;;;;;;;;;;;;;;16.78;100.00;100814.34;5071395;28;19943;-70
2021/07/16 00:55:05;;;;;;;;;;;;;;;16.80;100.00;100814.22;5070857;28;20013;-70
2021/07/16 00:57:32;;;;;;;;;;;;;;;16.77;100.00;100811.78;5074822;28;20023;-70
2021/07/16 00:59:58;;;;;;;;;;;;;;;16.74;100.00;100815.69;5074897;28;20399;-70
2021/07/16 01:02:26;;;;;;;;;;;;;;;16.71;100.00;100821.53;5074529;28;20047;-70
2021/07/16 01:04:53;;;;;;;;;;;;;;;16.65;100.00;100822.16;5074654;28;19932;-70
2021/07/16 01:07:19;;;;;;;;;;;;;;;16.60;100.00;100819.06;5074605;28;19967;-70
2021/07/16 01:09:50;;;;;;;;;;;;;;;16.57;100.00;100820.25;5073509;28;19963;-70
2021/07/16 01:12:16;;;;;;;;;;;;;;;16.51;100.00;100826.38;5074241;28;19951;-70
2021/07/16 01:14:42;;;;;;;;;;;;;;;16.49;100.00;100822.91;5074468;28;19975;-70
2021/07/16 01:17:09;;;;;;;;;;;;;;;16.43;100.00;100824.41;5074407;28;19983;-70
2021/07/16 01:19:43;;;;;;;;;;;;;;;16.44;100.00;100817.94;5073291;28;19924;-70
2021/07/16 01:22:10;;;;;;;;;;;;;;;16.40;100.00;100819.28;5073946;28;19970;-70
2021/07/16 01:24:38;;;;;;;;;;;;;;;16.36;100.00;100816.00;5074463;28;20348;-70
2021/07/16 01:27:04;;;;;;;;;;;;;;;16.37;100.00;100814.13;5074227;28;19979;-70
2021/07/16 01:29:31;;;;;;;;;;;;;;;16.35;100.00;100822.47;5074210;28;20015;-70
2021/07/16 01:31:57;;;;;;;;;;;;;;;16.33;100.00;100812.72;5073946;28;19958;-70
2021/07/16 01:34:24;;;;;;;;;;;;;;;16.27;100.00;100810.63;5074140;28;19968;-70
2021/07/16 01:36:50;;;;;;;;;;;;;;;16.23;100.00;100813.69;5074016;28;19925;-70
2021/07/16 01:39:16;;;;;;;;;;;;;;;16.23;100.00;100818.28;5073969;28;20305;-70
2021/07/16 01:41:44;;;;;;;;;;;;;;;16.19;100.00;100817.78;5074263;28;19970;-70
2021/07/16 01:44:10;;;;;;;;;;;;;;;16.15;100.00;100815.50;5073861;28;20015;-70
2021/07/16 01:46:36;;;;;;;;;;;;;;;16.10;100.00;100807.78;5074034;28;20015;-70
2021/07/16 01:49:03;;;;;;;;;;;;;;;16.09;100.00;100806.03;5073751;28;19966;-70
2021/07/16 01:51:29;;;;;;;;;;;;;;;16.06;100.00;100803.59;5075136;28;19931;-70
2021/07/16 01:53:56;;;;;;;;;;;;;;;16.04;100.00;100805.66;5074371;28;19925;-70
2021/07/16 01:56:23;;;;;;;;;;;;;;;16.06;100.00;100801.75;5073739;28;19959;-70
2021/07/16 01:58:51;;;;;;;;;;;;;;;16.02;100.00;100808.56;5073726;28;20360;-70
2021/07/16 02:01:17;;;;;;;;;;;;;;;16.00;100.00;100801.50;5073611;28;19932;-70
2021/07/16 02:03:44;;;;;;;;;;;;;;;15.99;100.00;100805.25;5073647;28;19959;-69
2021/07/16 02:06:10;;;;;;;;;;;;;;;15.97;100.00;100802.69;5073374;28;20307;-69
2021/07/16 02:08:37;;;;;;;;;;;;;;;16.00;100.00;100809.72;5072613;28;19963;-69
2021/07/16 02:11:03;;;;;;;;;;;;;;;16.00;100.00;100807.84;5073451;28;19928;-69
2021/07/16 02:13:29;;;;;;;;;;;;;;;16.00;100.00;100807.84;5073492;28;19986;-69
2021/07/16 02:15:57;;;;;;;;;;;;;;;15.98;100.00;100806.28;5073526;28;19947;-69
2021/07/16 02:18:24;;;;;;;;;;;;;;;15.96;100.00;100800.97;5073105;28;19929;-71
2021/07/16 02:20:50;;;;;;;;;;;;;;;15.95;100.00;100798.38;5073535;28;20011;-70
2021/07/16 02:23:18;;;;;;;;;;;;;;;15.89;100.00;100800.72;5072915;28;20060;-69
2021/07/16 02:25:44;;;;;;;;;;;;;;;15.90;100.00;100798.88;5073449;28;19959;-69
2021/07/16 02:28:11;;;;;;;;;;;;;;;15.94;100.00;100796.66;5072978;28;19924;-69
2021/07/16 02:30:38;;;;;;;;;;;;;;;15.92;100.00;100787.75;5073353;28;20352;-69
2021/07/16 02:33:06;;;;;;;;;;;;;;;15.89;100.00;100792.53;5072975;28;20392;-69
2021/07/16 02:35:32;;;;;;;;;;;;;;;15.87;100.00;100797.31;5073102;28;19986;-69
2021/07/16 02:37:59;;;;;;;;;;;;;;;15.86;100.00;100795.59;5072744;28;20336;-70
2021/07/16 02:40:26;;;;;;;;;;;;;;;15.84;100.00;100800.34;5072977;28;20027;-69
2021/07/16 02:42:52;;;;;;;;;;;;;;;15.85;100.00;100796.59;5072571;28;20395;-70
2021/07/16 02:45:20;;;;;;;;;;;;;;;15.83;100.00;100793.19;5072820;28;19925;-69
2021/07/16 02:47:47;;;;;;;;;;;;;;;15.83;100.00;100797.78;5071474;28;19960;-69
2021/07/16 02:50:15;;;;;;;;;;;;;;;15.80;100.00;100784.38;5073023;28;19924;-70
2021/07/16 02:52:42;;;;;;;;;;;;;;;15.83;100.00;100792.28;5072948;28;19959;-69
2021/07/16 02:55:09;;;;;;;;;;;;;;;15.83;100.00;100784.97;5072759;28;20400;-70
2021/07/16 02:57:35;;;;;;;;;;;;;;;15.83;100.00;100798.66;5071532;28;20038;-69
2021/07/16 03:00:02;;;;;;;;;;;;;;;15.78;100.00;100800.97;5071423;28;19924;-69
2021/07/16 03:02:29;;;;;;;;;;;;;;;15.78;100.00;100803.69;5072317;28;20209;-69
2021/07/16 03:04:55;;;;;;;;;;;;;;;15.84;100.00;100803.09;5071447;28;20425;-71
2021/07/16 03:07:23;;;;;;;;;;;;;;;15.90;100.00;100801.63;5072252;28;20355;-69
2021/07/16 03:09:49;;;;;;;;;;;;;;;15.89;100.00;100810.84;5072535;28;19928;-69
2021/07/16 03:12:15;;;;;;;;;;;;;;;15.89;100.00;100811.69;5072361;28;20019;-70
2021/07/16 03:14:42;;;;;;;;;;;;;;;15.96;100.00;100811.06;5072523;28;19968;-70
2021/07/16 03:17:08;;;;;;;;;;;;;;;15.95;100.00;100814.81;5071966;28;20402;-69
2021/07/16 03:19:34;;;;;;;;;;;;;;;15.91;100.00;100811.53;5072152;28;20376;-70
2021/07/16 03:22:01;;;;;;;;;;;;;;;15.93;100.00;100816.84;5071866;28;20015;-70
2021/07/16 03:24:28;;;;;;;;;;;;;;;15.95;100.00;100821.13;5071673;28;20409;-70
2021/07/16 03:26:55;;;;;;;;;;;;;;;15.94;100.00;100826.78;5071900;28;19966;-70
2021/07/16 03:29:21;;;;;;;;;;;;;;;15.96;100.00;100828.34;5072139;28;20016;-70
2021/07/16 03:31:47;;;;;;;;;;;;;;;15.96;100.00;100827.50;5071828;28;20388;-70
2021/07/16 03:34:13;;;;;;;;;;;;;;;16.01;100.00;100827.88;5072009;28;19974;-69
2021/07/16 03:36:40;;;;;;;;;;;;;;;16.01;100.00;100836.94;5071818;28;19959;-70
2021/07/16 03:39:06;;;;;;;;;;;;;;;16.02;100.00;100833.19;5071626;28;19952;-69
2021/07/16 03:41:34;;;;;;;;;;;;;;;16.02;100.00;100829.56;5070700;28;20345;-70
2021/07/16 03:44:00;;;;;;;;;;;;;;;16.04;100.00;100831.13;5071659;28;19991;-69
2021/07/16 03:46:27;;;;;;;;;;;;;;;16.03;100.00;100829.44;5071814;28;19956;-70
2021/07/16 03:48:54;;;;;;;;;;;;;;;16.04;100.00;100835.78;5071753;28;19951;-70
2021/07/16 03:51:20;;;;;;;;;;;;;;;16.09;100.00;100838.91;5071772;28;19972;-70
2021/07/16 03:53:47;;;;;;;;;;;;;;;16.09;100.00;100848.97;5071365;28;19924;-70
2021/07/16 03:56:13;;;;;;;;;;;;;;;16.16;100.00;100839.97;5071643;28;20363;-70
2021/07/16 03:58:42;;;;;;;;;;;;;;;16.21;100.00;100843.09;5071518;28;19986;-70
2021/07/16 04:01:08;;;;;;;;;;;;;;;16.27;100.00;100829.78;5071597;28;19924;-70
2021/07/16 04:03:34;;;;;;;;;;;;;;;16.32;100.00;100832.91;5071683;28;19966;-70
2021/07/16 04:06:00;;;;;;;;;;;;;;;16.41;100.00;100829.22;5074446;28;19952;-69
2021/07/16 04:08:27;;;;;;;;;;;;;;;16.44;100.00;100828.88;5071331;28;19986;-63
2021/07/16 04:10:53;;;;;;;;;;;;;;;16.46;100.00;100832.34;5070057;28;19978;-63
2021/07/16 04:13:19;;;;;;;;;;;;;;;16.48;100.00;100834.91;5074950;28;20023;-65
2021/07/16 04:15:47;;;;;;;;;;;;;;;16.47;100.00;100836.78;5071253;28;19963;-64
2021/07/16 04:18:13;;;;;;;;;;;;;;;16.49;100.00;100837.50;5071044;28;20032;-64
2021/07/16 04:20:40;;;;;;;;;;;;;;;16.50;100.00;100852.03;5076599;28;19924;-65
2021/07/16 04:23:07;;;;;;;;;;;;;;;16.51;100.00;100842.81;5078470;28;19928;-64
2021/07/16 04:25:33;;;;;;;;;;;;;;;16.57;100.00;100853.97;5083464;28;19956;-64
2021/07/16 04:28:01;;;;;;;;;;;;;;;16.61;100.00;100842.69;5070827;28;19972;-64
2021/07/16 04:30:27;;;;;;;;;;;;;;;16.66;100.00;100843.06;5072663;28;20445;-64
2021/07/16 04:32:58;;;;;;;;;;;;;;;16.71;100.00;100843.44;5076213;28;19960;-64
2021/07/16 04:35:24;;;;;;;;;;;;;;;16.78;100.00;100841.75;5078219;28;19975;-64
2021/07/16 04:37:50;;;;;;;;;;;;;;;16.83;100.00;100844.88;5095517;28;20268;-64
2021/07/16 04:40:19;;;;;;;;;;;;;;;16.93;100.00;100852.16;5080425;28;19955;-64
2021/07/16 04:42:47;;;;;;;;;;;;;;;17.03;100.00;100856.50;5087404;28;19946;-65
2021/07/16 04:45:13;;;;;;;;;;;;;;;17.22;100.00;100863.63;5095132;28;19951;-64
2021/07/16 04:47:40;;;;;;;;;;;;;;;17.36;100.00;100864.03;5084312;28;20361;-66
2021/07/16 04:50:08;;;;;;;;;;;;;;;17.49;100.00;100861.66;5074649;28;19929;-65
2021/07/16 04:52:37;;;;;;;;;;;;;;;17.63;100.00;100868.38;5075594;28;19982;-64
2021/07/16 04:55:04;;;;;;;;;;;;;;;17.79;100.00;100870.31;5074029;28;20441;-64
2021/07/16 04:57:30;;;;;;;;;;;;;;;18.00;100.00;100866.28;5090563;28;19959;-64
2021/07/16 04:59:56;;;;;;;;;;;;;;;18.18;100.00;100869.69;5094837;28;19969;-64
2021/07/16 05:02:22;;;;;;;;;;;;;;;18.38;100.00;100863.84;5083872;28;19932;-68
2021/07/16 05:04:49;;;;;;;;;;;;;;;18.55;100.00;100865.56;5073979;28;19978;-68
2021/07/16 05:07:17;;;;;;;;;;;;;;;18.74;100.00;100864.31;5074328;28;19925;-68
2021/07/16 05:09:44;;;;;;;;;;;;;;;18.96;100.00;100866.53;5082022;28;20017;-67
2021/07/16 05:12:10;;;;;;;;;;;;;;;19.11;100.00;100864.78;5094637;28;20011;-67
2021/07/16 05:14:36;;;;;;;;;;;;;;;19.29;100.00;100855.41;5093041;28;19928;-68
2021/07/16 05:17:03;;;;;;;;;;;;;;;19.47;100.00;100860.66;5080698;28;20398;-68
2021/07/16 05:19:29;;;;;;;;;;;;;;;19.66;100.00;100853.84;5078519;28;20345;-69
2021/07/16 05:21:57;;;;;;;;;;;;;;;19.78;100.00;100857.06;5093987;28;20344;-68
2021/07/16 05:24:24;;;;;;;;;;;;;;;20.00;100.00;100858.13;5089216;28;19924;-68
2021/07/16 05:26:51;;;;;;;;;;;;;;;20.11;100.00;100857.69;5079374;28;19972;-67
2021/07/16 05:29:17;;;;;;;;;;;;;;;20.21;100.00;100855.53;5073762;28;20375;-68
2021/07/16 05:31:43;;;;;;;;;;;;;;;20.35;100.00;100855.75;5074057;28;19928;-66
2021/07/16 05:34:10;;;;;;;;;;;;;;;20.46;100.00;100854.47;5072358;28;19932;-68
2021/07/16 05:36:36;;;;;;;;;;;;;;;20.52;100.00;100854.59;5073919;28;20303;-67
2021/07/16 05:39:05;;;;;;;;;;;;;;;20.63;100.00;100857.91;5073454;28;19926;-67
2021/07/16 05:41:33;;;;;;;;;;;;;;;20.80;100.00;100853.13;5073119;28;19924;-67
2021/07/16 05:43:59;;;;;;;;;;;;;;;20.97;100.00;100854.66;5072876;28;19931;-68
2021/07/16 05:46:27;;;;;;;;;;;;;;;21.07;100.00;100859.88;5073692;28;19959;-67
2021/07/16 05:48:53;;;;;;;;;;;;;;;21.19;100.00;100858.38;5073678;28;20032;-68
2021/07/16 05:51:20;;;;;;;;;;;;;;;21.42;100.00;100862.91;5073351;28;19963;-68
2021/07/16 05:53:46;;;;;;;;;;;;;;;21.62;100.00;100865.06;5072444;28;19925;-68
2021/07/16 05:56:12;;;;;;;;;;;;;;;21.80;100.00;100854.44;5073493;28;19967;-67
2021/07/16 05:58:40;;;;;;;;;;;;;;;22.01;100.00;100855.53;5073149;28;20338;-68
2021/07/16 06:01:06;;;;;;;;;;;;;;;22.26;100.00;100861.50;5073216;28;19924;-68
2021/07/16 06:03:32;;;;;;;;;;;;;;;22.53;100.00;100854.31;5073402;28;20013;-68
2021/07/16 06:05:59;;;;;;;;;;;;;;;22.79;100.00;100849.19;5073314;28;19960;-67
2021/07/16 06:08:25;;;;;;;;;;;;;;;23.29;100.00;100835.22;5073002;28;20376;-68
2021/07/16 06:10:51;;;;;;;;;;;;;;;23.71;100.00;100838.78;5073400;28;19971;-66
2021/07/16 06:13:18;;;;;;;;;;;;;;;24.09;100.00;100834.63;5072937;28;19956;-66
2021/07/16 06:15:45;;;;;;;;;;;;;;;24.36;100.00;100835.50;5073004;28;19963;-66
2021/07/16 06:18:11;;;;;;;;;;;;;;;24.68;100.00;100835.69;5073214;28;19928;-67
2021/07/16 06:20:38;;;;;;;;;;;;;;;25.04;100.00;100842.66;5073295;28;20261;-67
2021/07/16 06:23:05;;;;;;;;;;;;;;;25.35;100.00;100841.13;5072730;28;19978;-67
2021/07/16 06:25:31;;;;;;;;;;;;;;;25.64;100.00;100838.84;5072997;28;20391;-67
2021/07/16 06:27:58;;;;;;;;;;;;;;;25.88;100.00;100839.97;5072780;28;19942;-68
2021/07/16 06:30:24;;;;;;;;;;;;;;;26.12;100.00;100843.91;5072776;28;20296;-68
2021/07/16 06:32:51;;;;;;;;;;;;;;;26.38;100.00;100848.41;5072570;28;19924;-69
2021/07/16 06:35:18;;;;;;;;;;;;;;;26.63;100.00;100844.78;5072508;28;19924;-69
2021/07/16 06:37:44;;;;;;;;;;;;;;;26.89;100.00;100837.25;5072950;28;19924;-69
2021/07/16 06:40:11;;;;;;;;;;;;;;;27.12;100.00;100844.09;5070892;28;19925;-69
2021/07/16 06:42:37;;;;;;;;;;;;;;;27.43;100.00;100837.50;5072594;28;19929;-69
2021/07/16 06:45:05;;;;;;;;;;;;;;;27.55;100.00;100844.00;5072182;28;19928;-69
2021/07/16 06:47:31;;;;;;;;;;;;;;;27.62;100.00;100849.50;5072476;28;20015;-67
2021/07/16 06:49:59;;;;;;;;;;;;;;;27.61;100.00;100844.16;5072397;28;20396;-69
2021/07/16 06:52:25;;;;;;;;;;;;;;;27.40;100.00;100843.56;5071843;28;19929;-69
2021/07/16 06:54:51;;;;;;;;;;;;;;;27.61;100.00;100845.00;5072262;28;20016;-69
2021/07/16 06:57:17;;;;;;;;;;;;;;;27.52;100.00;100849.19;5084593;28;20387;-69
2021/07/16 06:59:44;;;;;;;;;;;;;;;27.97;100.00;100856.31;5086858;28;19974;-69
2021/07/16 07:02:10;;;;;;;;;;;;;;;28.16;100.00;100852.38;5087010;28;20422;-69
2021/07/16 07:04:36;;;;;;;;;;;;;;;28.23;100.00;100861.50;5072256;28;19971;-69
2021/07/16 07:07:04;;;;;;;;;;;;;;;28.50;100.00;100858.25;5075173;28;19960;-68
2021/07/16 07:09:31;;;;;;;;;;;;;;;28.90;100.00;100853.91;5087454;28;20402;-67
2021/07/16 07:11:57;;;;;;;;;;;;;;;29.17;100.00;100862.63;5074357;28;19933;-70
2021/07/16 07:14:23;;;;;;;;;;;;;;;29.58;100.00;100867.44;5071819;28;19970;-69
2021/07/16 07:16:49;;;;;;;;;;;;;;;29.79;100.00;100866.72;5086605;28;19955;-69
2021/07/16 07:19:17;;;;;;;;;;;;;;;29.50;100.00;100866.69;5090285;28;20284;-69
2021/07/16 07:21:43;;;;;;;;;;;;;;;29.33;100.00;100865.78;5090423;28;19924;-69
2021/07/16 07:24:11;;;;;;;;;;;;;;;29.25;100.00;100868.94;5091851;28;19967;-69
2021/07/16 07:26:37;;;;;;;;;;;;;;;29.12;100.00;100864.47;5084937;28;19956;-69
2021/07/16 07:29:04;;;;;;;;;;;;;;;29.15;100.00;100867.59;5070925;28;19932;-69
2021/07/16 07:31:30;;;;;;;;;;;;;;;28.90;100.00;100865.09;5074855;28;19924;-69
2021/07/16 07:33:57;;;;;;;;;;;;;;;28.44;100.00;100864.81;5091876;28;19924;-69
2021/07/16 07:36:23;;;;;;;;;;;;;;;28.57;100.00;100863.72;5081160;28;20022;-69
2021/07/16 07:38:49;;;;;;;;;;;;;;;28.84;100.00;100866.91;5071706;28;19970;-69
2021/07/16 07:41:17;;;;;;;;;;;;;;;28.86;100.00;100867.53;5072466;28;19931;-69
2021/07/16 07:43:43;;;;;;;;;;;;;;;29.16;100.00;100866.53;5071792;28;20368;-69
2021/07/16 07:46:09;;;;;;;;;;;;;;;29.39;100.00;100865.66;5072848;28;19925;-69
2021/07/16 07:48:36;;;;;;;;;;;;;;;29.79;100.00;100866.72;5091308;28;19924;-69
2021/07/16 07:51:02;;;;;;;;;;;;;;;30.23;100.00;100875.41;5090594;28;20440;-69
2021/07/16 07:53:28;;;;;;;;;;;;;;;30.47;100.00;100869.69;5077217;28;19986;-69
2021/07/16 07:55:55;;;;;;;;;;;;;;;30.55;100.00;100877.66;5086112;28;20427;-69
2021/07/16 07:58:22;;;;;;;;;;;;;;;30.38;100.00;100872.03;5070474;28;19956;-69
2021/07/16 08:00:49;;;;;;;;;;;;;;;30.78;100.00;100880.56;5071348;28;19925;-69
2021/07/16 08:03:15;;;;;;;;;;;;;;;30.86;100.00;100878.16;5084721;28;19924;-69
2021/07/16 08:05:41;;;;;;;;;;;;;;;31.32;100.00;100880.81;5090654;28;19970;-69
2021/07/16 08:08:07;;;;;;;;;;;;;;;31.52;100.00;100873.75;5078813;28;20399;-67
2021/07/16 08:10:34;;;;;;;;;;;;;;;31.71;100.00;100877.94;5071318;28;19924;-67
2021/07/16 08:13:00;;;;;;;;;;;;;;;31.73;100.00;100872.06;5072490;28;19952;-67
2021/07/16 08:15:28;;;;;;;;;;;;;;;31.47;100.00;100887.69;5071119;28;19935;-69
2021/07/16 08:17:54;;;;;;;;;;;;;;;31.56;100.00;100883.34;5081300;28;19924;-69
2021/07/16 08:20:20;;;;;;;;;;;;;;;30.99;100.00;100881.72;5091383;28;19975;-68
2021/07/16 08:22:47;;;;;;;;;;;;;;;30.72;100.00;100888.88;5089433;28;19955;-68
2021/07/16 08:25:13;;;;;;;;;;;;;;;30.13;100.00;100885.56;5091214;28;20349;-68
2021/07/16 08:27:40;;;;;;;;;;;;;;;30.22;100.00;100884.91;5087251;28;19951;-69
2021/07/16 08:30:07;;;;;;;;;;;;;;;30.32;100.00;100883.38;5091158;28;19924;-69
2021/07/16 08:32:34;;;;;;;;;;;;;;;30.32;100.00;100889.84;5089460;28;19932;-69
2021/07/16 08:35:01;;;;;;;;;;;;;;;30.23;100.00;100889.41;5090080;28;20197;-69
2021/07/16 08:37:27;;;;;;;;;;;;;;;30.35;100.00;100878.16;5083725;28;20018;-68
2021/07/16 08:39:55;;;;;;;;;;;;;;;29.37;100.00;100886.56;5073876;28;19972;-68
2021/07/16 08:42:22;;;;;;;;;;;;;;;29.19;100.00;100879.16;5070737;28;20449;-68
2021/07/16 08:44:50;;;;;;;;;;;;;;;29.19;100.00;100884.75;5071085;28;20379;-68
2021/07/16 08:47:18;;;;;;;;;;;;;;;29.46;100.00;100879.47;5070614;28;20335;-68
2021/07/16 08:49:45;;;;;;;;;;;;;;;29.91;100.00;100877.06;5072127;28;19928;-68
2021/07/16 08:52:12;;;;;;;;;;;;;;;30.51;100.00;100882.09;5070964;28;19968;-68
2021/07/16 08:54:45;;;;;;;;;;;;;;;31.36;100.00;100879.19;5087020;28;20376;-68
2021/07/16 08:57:12;;;;;;;;;;;;;;;31.84;100.00;100873.91;5090826;28;19928;-68
2021/07/16 08:59:38;;;;;;;;;;;;;;;31.66;100.00;100882.66;5077902;28;19924;-68
2021/07/16 09:02:05;;;;;;;;;;;;;;;31.78;99.91;100882.53;5070789;28;19928;-67
2021/07/16 09:04:36;;;;;;;;;;;;;;;32.12;98.74;100871.91;5085476;28;20038;-68
2021/07/16 09:07:04;;;;;;;;;;;;;;;31.69;100.00;100880.16;5090982;28;19970;-67
2021/07/16 09:09:35;;;;;;;;;;;;;;;31.73;100.00;100879.66;5088832;28;19971;-67
2021/07/16 09:12:01;;;;;;;;;;;;;;;30.72;100.00;100883.28;5090736;28;20014;-67
2021/07/16 09:14:29;;;;;;;;;;;;;;;30.64;100.00;100886.50;5077076;28;20051;-67
2021/07/16 09:16:56;;;;;;;;;;;;;;;31.27;100.00;100885.47;5071705;28;19936;-67
2021/07/16 09:19:26;;;;;;;;;;;;;;;31.36;99.78;100883.91;5076141;28;19929;-67
2021/07/16 09:21:58;;;;;;;;;;;;;;;31.84;100.00;100879.50;5074137;28;19967;-67
2021/07/16 09:24:26;;;;;;;;;;;;;;;31.59;95.80;100879.16;5078126;28;19995;-67
2021/07/16 09:26:52;;;;;;;;;;;;;;;31.81;100.00;100882.00;5072030;28;19970;-67
2021/07/16 09:29:26;;;;;;;;;;;;;;;31.75;100.00;100878.28;5072396;28;20179;-67
2021/07/16 09:32:01;;;;;;;;;;;;;;;31.66;100.00;100882.66;5085429;28;20011;-67
2021/07/16 09:34:27;;;;;;;;;;;;;;;31.82;100.00;100878.06;5079052;28;19968;-67
2021/07/16 09:36:54;;;;;;;;;;;;;;;31.77;100.00;100878.84;5093270;28;20021;-67
2021/07/16 09:39:24;;;;;;;;;;;;;;;32.18;100.00;100879.31;5082242;28;20014;-67
2021/07/16 09:41:53;;;;;;;;;;;;;;;32.44;100.00;100873.09;5074471;28;19924;-67
2021/07/16 09:44:27;;;;;;;;;;;;;;;31.74;98.92;100872.94;5083390;28;19928;-67
2021/07/16 09:47:05;;;;;;;;;;;;;;;31.89;95.95;100873.09;5083946;28;19928;-67
2021/07/16 09:49:31;;;;;;;;;;;;;;;32.31;100.00;100879.97;5077266;28;19924;-67
2021/07/16 09:52:06;;;;;;;;;;;;;;;32.63;96.14;100882.81;5078371;28;19930;-67
2021/07/16 09:54:32;;;;;;;;;;;;;;;33.46;89.98;100878.56;5069837;28;19994;-67
2021/07/16 09:56:59;;;;;;;;;;;;;;;32.95;87.89;100881.94;5088652;28;20024;-67
2021/07/16 09:59:27;;;;;;;;;;;;;;;32.97;92.47;100881.66;5073380;28;19994;-67
2021/07/16 10:01:54;;;;;;;;;;;;;;;32.90;97.22;100872.59;5075470;28;19968;-67
2021/07/16 10:04:21;;;;;;;;;;;;;;;32.70;95.85;100882.56;5072949;28;19929;-67
2021/07/16 10:06:49;;;;;;;;;;;;;;;32.57;100.00;100885.84;5083896;28;19931;-67
2021/07/16 10:09:15;;;;;;;;;;;;;;;32.36;98.66;100885.66;5073147;28;19978;-68
2021/07/16 10:11:42;;;;;;;;;;;;;;;32.17;97.51;100879.59;5086640;28;19959;-68
2021/07/16 10:14:09;;;;;;;;;;;;;;;32.33;96.95;100884.22;5093144;28;19924;-69
2021/07/16 10:16:39;;;;;;;;;;;;;;;32.99;94.65;100885.91;5091047;28;20404;-68
2021/07/16 10:19:05;;;;;;;;;;;;;;;33.17;89.52;100887.41;5091571;28;20345;-68
2021/07/16 10:21:31;;;;;;;;;;;;;;;33.52;89.82;100887.88;5093273;28;19924;-68
2021/07/16 10:23:58;;;;;;;;;;;;;;;33.45;96.50;100887.28;5075516;28;20042;-70
2021/07/16 10:26:26;;;;;;;;;;;;;;;33.47;91.73;100891.53;5075001;28;19979;-67
2021/07/16 10:28:52;;;;;;;;;;;;;;;33.08;87.82;100891.84;5072386;28;19931;-67
2021/07/16 10:31:39;;;;;;;;;;;;;;;33.04;88.45;100896.31;5087159;28;19928;-69
2021/07/16 10:34:06;;;;;;;;;;;;;;;33.18;93.48;100900.34;5074334;28;19970;-69
2021/07/16 10:36:39;;;;;;;;;;;;;;;33.12;91.74;100904.22;5084980;28;19967;-68
2021/07/16 10:39:08;;;;;;;;;;;;;;;33.10;100.00;100900.84;5092820;28;20372;-70
2021/07/16 10:41:38;;;;;;;;;;;;;;;32.69;88.56;100894.91;5079632;28;21538;-68
2021/07/16 10:44:04;;;;;;;;;;;;;;;31.76;90.70;100898.75;5084403;28;19934;-68
2021/07/16 10:46:31;;;;;;;;;;;;;;;31.76;95.56;100904.38;5092795;28;19963;-67
2021/07/16 10:49:00;;;;;;;;;;;;;;;31.92;96.74;100900.63;5082227;28;19925;-68
2021/07/16 10:51:27;;;;;;;;;;;;;;;31.93;100.00;100907.09;5080668;28;19989;-68
2021/07/16 10:53:54;;;;;;;;;;;;;;;32.13;100.00;100901.69;5075236;28;19998;-69
2021/07/16 10:56:20;;;;;;;;;;;;;;;32.75;97.00;100901.44;5072073;28;19928;-68
2021/07/16 10:58:50;;;;;;;;;;;;;;;32.38;98.72;100903.94;5071056;28;19924;-68
2021/07/16 11:01:30;;;;;;;;;;;;;;;32.07;100.00;100908.38;5072024;28;20021;-68
2021/07/16 11:03:56;;;;;;;;;;;;;;;32.04;94.90;100901.34;5072440;28;19924;-68
2021/07/16 11:06:44;;;;;;;;;;;;;;;31.59;94.98;100899.66;5072808;28;19968;-68
2021/07/16 11:09:10;;;;;;;;;;;;;;;31.58;94.25;100902.72;5085729;28;19967;-68
2021/07/16 11:11:38;;;;;;;;;;;;;;;31.26;95.16;100909.88;5086659;28;19924;-68
2021/07/16 11:14:05;;;;;;;;;;;;;;;31.39;96.59;100906.69;5075415;28;19932;-67
2021/07/16 11:16:44;;;;;;;;;;;;;;;31.37;96.61;100908.06;5073888;28;19929;-69
2021/07/16 11:19:19;;;;;;;;;;;;;;;31.14;95.15;100901.56;5084938;28;20296;-68
2021/07/16 11:22:05;;;;;;;;;;;;;;;31.24;91.93;100900.88;5070482;28;19928;-68
2021/07/16 11:24:35;;;;;;;;;;;;;;;31.68;95.13;100895.31;5075383;28;20322;-68
2021/07/16 11:27:07;;;;;;;;;;;;;;;31.94;87.22;100895.59;5084426;28;19925;-68
2021/07/16 11:29:34;;;;;;;;;;;;;;;32.30;97.54;100900.78;5078729;28;20196;-67
2021/07/16 11:32:02;;;;;;;;;;;;;;;32.09;99.73;100899.69;5071677;28;20311;-67
2021/07/16 11:34:28;;;;;;;;;;;;;;;31.77;95.89;100901.28;5087960;28;19935;-68
2021/07/16 11:36:54;;;;;;;;;;;;;;;31.64;98.10;100907.31;5076305;28;20016;-68
2021/07/16 11:39:29;;;;;;;;;;;;;;;31.38;93.85;100906.94;5072346;28;20369;-68
2021/07/16 11:41:56;;;;;;;;;;;;;;;31.47;95.31;100918.56;5070989;28;19946;-67
2021/07/16 11:44:26;;;;;;;;;;;;;;;31.79;98.28;100906.63;5083219;28;20331;-68
2021/07/16 11:46:52;;;;;;;;;;;;;;;31.95;93.82;100911.34;5091803;28;19924;-68
2021/07/16 11:49:25;;;;;;;;;;;;;;;31.36;98.66;100911.97;5075815;28;20418;-68
2021/07/16 11:51:57;;;;;;;;;;;;;;;31.16;98.21;100916.19;5072383;28;20007;-68
2021/07/16 11:54:24;;;;;;;;;;;;;;;30.88;100.00;100914.31;5069924;28;19935;-68
2021/07/16 11:56:55;;;;;;;;;;;;;;;30.96;100.00;100916.72;5086090;28;19974;-68
2021/07/16 11:59:21;;;;;;;;;;;;;;;31.26;100.00;100923.88;5084877;28;20023;-68
2021/07/16 12:02:02;;;;;;;;;;;;;;;31.10;95.44;100916.38;5071230;28;20061;-68
2021/07/16 12:04:29;;;;;;;;;;;;;;;31.62;100.00;100917.97;5072244;28;20007;-68
2021/07/16 12:06:55;;;;;;;;;;;;;;;31.92;100.00;100917.44;5071276;28;19978;-68
2021/07/16 12:09:29;;;;;;;;;;;;;;;31.76;100.00;100912.78;5075167;28;20280;-68
2021/07/16 12:12:01;;;;;;;;;;;;;;;31.96;97.69;100906.56;5091498;28;19967;-68
2021/07/16 12:14:27;;;;;;;;;;;;;;;32.20;100.00;100908.00;5077262;28;20452;-68
2021/07/16 12:16:54;;;;;;;;;;;;;;;32.60;98.32;100907.78;5075784;28;19928;-68
2021/07/16 12:19:20;;;;;;;;;;;;;;;32.88;95.72;100912.22;5091279;28;20375;-68
2021/07/16 12:21:47;;;;;;;;;;;;;;;33.04;89.93;100907.56;5088554;28;19978;-68
2021/07/16 12:24:14;;;;;;;;;;;;;;;32.95;84.45;100906.38;5077093;28;19924;-68
2021/07/16 12:26:41;;;;;;;;;;;;;;;33.02;87.12;100898.56;5078393;28;20002;-69
2021/07/16 12:29:09;;;;;;;;;;;;;;;33.49;83.75;100900.53;5073272;28;19970;-68